• Join FlightAware (Why Join?)
  • Login
  • US Flag 
12:10PM EDT


 

Airport Tracker/Info


-or-


 

Live Flight TrackerFlight Track Log ✈ UAL4663 ✈ 15-Apr-2013 ✈ KEWR - KRDU

Flight Track Log - Related Links

Times and Time Zones

All times are in EDT time to prevent confusion due to time zone crossing. See the UAL4663 flight status page for this flight to view local times or setup timezone preferences in your user account.

Time Position Orientation Groundspeed Altitude Reporting Facility
EDT Latitude Longitude Course Direction KTS MPH feet Rate Location/Type
05:30PM 40.6667 -74.1833 180° South 168 193 1,200  Level New York TRACON
05:31PM 40.6167 -74.2167 207° Southwest 208 239 3,200 1,500 Climbing New York TRACON
05:32PM 40.3983 -74.1991 159° South  Level FlightAware Approximate
05:32PM 40.4997 -74.2564 194° South 231 266 5,800  Level New York Center
05:33PM 40.2993 -74.1502 194° South  Level FlightAware Approximate
05:34PM 40.1967 -74.1844 194° South  Level FlightAware Approximate
05:34PM 40.4342 -74.2203 157° South 244 281 6,000  Level New York Center
05:35PM 40.0947 -74.2167 180° South  Level FlightAware Approximate
05:35PM 40.3683 -74.1897 161° South 252 290 6,100  Level New York Center
05:35PM 40.3003 -74.1672 166° South 252 290 8,100 1,980 Climbing New York Center
05:36PM 40.2289 -74.1883 193° South 258 297 10,100 1,560 Climbing New York Center
05:38PM 40.1161 -74.2189 192° South 286 329 12,000 1,200 Climbing Washington Center
05:39PM 40.0308 -74.2450 193° South 313 360 13,200 1,140 Climbing Washington Center
05:40PM 39.9483 -74.3086 211° Southwest 335 386 14,300 1,080 Climbing Washington Center
05:41PM 39.8678 -74.3831 215° Southwest 359 413 15,400 1,260 Climbing Washington Center
05:42PM 39.7917 -74.4681 221° Southwest 370 426 16,900 1,560 Climbing Washington Center
05:43PM 39.7133 -74.5639 223° Southwest 370 426 18,600 1,740 Climbing Washington Center
05:44PM 39.6472 -74.6536 226° Southwest 348 400 20,400 1,440 Climbing Washington Center
05:45PM 39.5792 -74.7461 226° Southwest 343 395 21,500 1,020 Climbing Washington Center
05:46PM 39.5069 -74.8439 226° Southwest 355 409 22,500 960 Climbing Washington Center
05:47PM 39.4325 -74.9386 225° Southwest 369 425 23,500 960 Climbing Washington Center
05:48PM 39.3558 -75.0386 225° Southwest 383 441 24,500 960 Climbing Washington Center
05:49PM 39.2792 -75.1386 225° Southwest 383 441 25,500 720 Climbing Washington Center
05:50PM 39.2025 -75.2408 226° Southwest 383 441 26,000 240 Climbing Washington Center
05:51PM 39.1194 -75.3428 224° Southwest 398 458 26,000  Level Washington Center
05:52PM 39.0342 -75.4581 226° Southwest 422 486 26,000  Level Washington Center
05:53PM 38.9467 -75.5703 225° Southwest 435 501 26,000  Level Washington Center
05:54PM 38.8778 -75.6983 235° Southwest 440 506 26,000  Level Washington Center
05:55PM 38.8297 -75.8394 246° West 440 506 26,000  Level Washington Center
05:56PM 38.7583 -75.9644 234° Southwest 435 501 26,000  Level Washington Center
05:57PM 38.6561 -76.0594 216° Southwest 440 506 26,000  Level Washington Center
05:58PM 38.5492 -76.1517 214° Southwest 454 522 26,000  Level Washington Center
05:59PM 38.4717 -76.2308 219° Southwest 454 522 26,000  Level Washington Center
06:00PM 38.3522 -76.3408 216° Southwest 454 522 26,000  Level Washington Center
06:01PM 38.2556 -76.4406 219° Southwest 454 522 26,000  Level Washington Center
06:02PM 38.1736 -76.5558 228° Southwest 441 507 26,000  Level Washington Center
06:03PM 38.1017 -76.6603 229° Southwest 441 507 26,100  Climbing Washington Center
06:04PM 38.0194 -76.7725 227° Southwest 441 507 26,000 -240 Descending Washington Center
06:05PM 37.9225 -76.8633 216° Southwest 436 502 25,700 -1,320 Descending Washington Center
06:06PM 37.8031 -76.9139 198° South 436 502 23,400 -1,740 Descending Washington Center
06:07PM 37.6878 -76.9642 199° South 436 502 22,300 -720 Descending Washington Center
06:08PM 37.5706 -77.0119 198° South 441 507 22,000 -180 Descending Washington Center
06:09PM 37.4425 -77.0672 199° South 441 507 22,000  Level Washington Center
06:10PM 37.3378 -77.1147 200° South 446 513 22,000  Level Washington Center
06:11PM 37.2197 -77.1906 207° Southwest 441 507 22,000  Level Washington Center
06:12PM 37.1144 -77.2667 210° Southwest 441 507 22,000  Level Washington Center
06:13PM 37.0133 -77.3397 210° Southwest 436 502 22,000  Level Washington Center
06:14PM 36.9078 -77.4181 211° Southwest 436 502 22,000  Level Washington Center
06:15PM 36.8044 -77.4933 210° Southwest 441 507 22,000  Level Washington Center
06:16PM 36.7008 -77.5711 211° Southwest 436 502 22,000  Level Washington Center
06:17PM 36.5994 -77.6461 211° Southwest 436 502 22,000  Level Washington Center
06:18PM 36.5042 -77.7289 215° Southwest 436 502 22,000 -540 Level Washington Center
06:19PM 36.4231 -77.8325 226° Southwest 430 495 21,000 -1,620 Descending Washington Center
06:20PM 36.3458 -77.9361 227° Southwest 415 478 18,800 -2,340 Descending Washington Center
06:20PM 36.3458 -77.9361 227° Southwest 402 463 18,700 -1,980 Descending Washington Center
06:20PM 36.3031 -77.9914 226° Southwest 397 457 17,800 -1,920 Descending Washington Center
06:21PM 36.2689 -78.0394 229° Southwest 410 472 16,800 -2,340 Descending Washington Center
06:21PM 36.2281 -78.0922 226° Southwest 396 456 15,500 -2,100 Descending Washington Center
06:22PM 36.2044 -78.1250 228° Southwest 403 464 14,700 -1,980 Descending Washington Center
06:22PM 36.1592 -78.1903 229° Southwest 379 436 13,500 -2,100 Descending Washington Center
06:23PM 36.1067 -78.2967 239° Southwest 359 413 11,500 -1,680 Descending Washington Center
06:24PM 36.0914 -78.3319 242° Southwest 364 419 11,100 -1,140 Descending Washington Center
06:24PM 36.0631 -78.3850 237° Southwest 313 360 10,500 -1,200 Descending Washington Center
06:25PM 36.0453 -78.4281 243° Southwest 322 371 9,900 -1,140 Descending Washington Center
06:25PM 36.0278 -78.4661 240° Southwest 269 310 9,400 -1,020 Descending Washington Center
06:26PM 36.0058 -78.5114 239° Southwest 300 345 8,900 -1,020 Descending Washington Center
06:26PM 35.9842 -78.5361 223° Southwest 272 313 8,500 -720 Descending Washington Center
06:27PM 35.9497 -78.5786 225° Southwest 284 327 8,200 -480 Descending Washington Center
06:27PM 35.9219 -78.6058 218° Southwest 276 318 8,000 -240 Descending Washington Center
06:28PM 35.8942 -78.6381 223° Southwest 279 321 8,000 -120 Level Washington Center
06:28PM 35.8581 -78.6622 208° Southwest 280 322 7,900 -600 Descending Washington Center
06:29PM 35.8322 -78.6947 226° Southwest 279 321 7,400 -1,260 Descending Washington Center
06:29PM 35.8083 -78.7244 225° Southwest 280 322 6,800 -1,860 Descending Washington Center
06:30PM 35.7567 -78.7864 224° Southwest 260 299 4,800 -1,980 Descending Washington Center